TAF

Looking For Latest

Worst Weather Category
LocationTimeVisiblityCeilingWeatherWind SpeedWind Gust
KLGB122346Z61100NONE WNW 10NA NA

  • TAFLGB TAF KLGB 122346Z 1300/1324 30010KT P6SM SKC
          FM130500 16005KT P6SM SKC
          FM131000 VRB03KT P6SM BKN011
          FM131700 19008KT P6SM FEW015 =